createdAt,value
2023-07-29T00:03:40.555Z,20.04
2023-07-29T00:07:42.089Z,20.02
2023-07-29T00:11:43.728Z,20.02
2023-07-29T00:15:45.276Z,20.01
2023-07-29T00:19:47.013Z,20.01
2023-07-29T00:23:48.679Z,20.00
2023-07-29T00:27:50.534Z,19.98
2023-07-29T00:31:52.169Z,19.95
2023-07-29T00:35:55.546Z,19.95
2023-07-29T00:39:58.303Z,19.94
2023-07-29T00:43:59.994Z,19.90
2023-07-29T00:48:03.371Z,19.89
2023-07-29T00:52:05.609Z,19.87
2023-07-29T00:56:07.698Z,19.83
2023-07-29T01:00:09.968Z,19.80
2023-07-29T01:04:11.579Z,19.83
2023-07-29T01:08:26.385Z,19.85
2023-07-29T01:12:39.104Z,19.87
2023-07-29T01:16:46.747Z,19.86
2023-07-29T01:20:49.312Z,19.86
2023-07-29T01:24:50.910Z,19.86
2023-07-29T01:28:52.626Z,19.86
2023-07-29T01:33:00.755Z,19.82
2023-07-29T01:37:05.199Z,19.82
2023-07-29T01:41:09.786Z,19.79
2023-07-29T01:45:11.368Z,19.78
2023-07-29T01:49:13.333Z,19.75
2023-07-29T01:53:14.924Z,19.72
2023-07-29T01:57:16.517Z,19.71
2023-07-29T02:01:19.081Z,19.67
2023-07-29T02:05:21.142Z,19.65
2023-07-29T02:09:22.704Z,19.61
2023-07-29T02:13:24.341Z,19.57
2023-07-29T02:17:27.199Z,19.57
2023-07-29T02:21:29.005Z,19.57
2023-07-29T02:25:30.608Z,19.52
2023-07-29T02:29:34.026Z,19.49
2023-07-29T02:33:35.735Z,19.49
2023-07-29T02:37:37.605Z,19.49
2023-07-29T02:41:39.330Z,19.50
2023-07-29T02:45:40.969Z,19.49
2023-07-29T02:49:42.565Z,19.50
2023-07-29T02:53:44.218Z,19.50
2023-07-29T02:57:45.873Z,19.49
2023-07-29T03:01:47.953Z,19.49
2023-07-29T03:05:49.596Z,19.49
2023-07-29T03:09:51.469Z,19.52
2023-07-29T03:13:53.121Z,19.52
2023-07-29T03:17:54.793Z,19.50
2023-07-29T03:21:56.375Z,19.52
2023-07-29T03:26:00.145Z,19.52
2023-07-29T03:30:01.904Z,19.52
2023-07-29T03:34:03.823Z,19.53
2023-07-29T03:38:05.899Z,19.53
2023-07-29T03:42:07.560Z,19.57
2023-07-29T03:46:12.105Z,19.57
2023-07-29T03:50:15.546Z,19.57
2023-07-29T03:54:17.220Z,19.52
2023-07-29T03:58:18.840Z,19.53
2023-07-29T04:02:20.913Z,19.53
2023-07-29T04:06:24.222Z,19.52
2023-07-29T04:10:25.994Z,19.53
2023-07-29T04:14:27.658Z,19.55
2023-07-29T04:18:29.261Z,19.57
2023-07-29T04:22:30.958Z,19.58
2023-07-29T04:26:32.559Z,19.61
2023-07-29T04:30:34.187Z,19.61
2023-07-29T04:34:35.843Z,19.61
2023-07-29T04:38:38.781Z,19.62
2023-07-29T04:42:40.519Z,19.62
2023-07-29T04:46:44.394Z,19.65
2023-07-29T04:50:46.160Z,19.67
2023-07-29T04:54:47.790Z,19.65
2023-07-29T04:58:49.472Z,19.65
2023-07-29T05:02:51.140Z,19.67
2023-07-29T05:06:52.906Z,19.67
2023-07-29T05:10:55.204Z,19.67
2023-07-29T05:14:56.856Z,19.68
2023-07-29T05:18:58.437Z,19.70
2023-07-29T05:23:00.109Z,19.72
2023-07-29T05:27:01.769Z,19.71
2023-07-29T05:31:03.579Z,19.71
2023-07-29T05:35:06.063Z,19.71
2023-07-29T05:39:08.467Z,19.71
2023-07-29T05:43:10.179Z,19.75
2023-07-29T05:47:11.763Z,19.82
2023-07-29T05:51:13.622Z,19.87
2023-07-29T05:55:15.696Z,19.94
2023-07-29T05:59:17.899Z,20.02
2023-07-29T06:03:19.685Z,20.16
2023-07-29T06:07:21.688Z,20.27
2023-07-29T06:11:23.362Z,20.38
2023-07-29T06:15:25.087Z,20.53
2023-07-29T06:19:26.657Z,20.63
2023-07-29T06:23:28.540Z,20.75
2023-07-29T06:27:30.229Z,20.83
2023-07-29T06:31:33.687Z,20.91
2023-07-29T06:35:35.241Z,20.93
2023-07-29T06:39:36.848Z,21.00
2023-07-29T06:43:38.394Z,21.08
2023-07-29T06:47:40.225Z,21.15
2023-07-29T06:51:41.988Z,21.21
2023-07-29T06:55:44.524Z,21.30
2023-07-29T06:59:46.122Z,21.37
2023-07-29T07:03:47.873Z,21.51
2023-07-29T07:07:49.485Z,21.61
2023-07-29T07:11:51.019Z,21.66
2023-07-29T07:15:55.677Z,21.73
2023-07-29T07:19:57.352Z,21.82
2023-07-29T07:23:59.234Z,21.98
2023-07-29T07:28:00.897Z,22.21
2023-07-29T07:32:03.333Z,22.41
2023-07-29T07:36:05.161Z,22.44
2023-07-29T07:40:07.388Z,22.41
2023-07-29T07:44:09.524Z,22.52
2023-07-29T07:48:12.893Z,22.69
2023-07-29T07:52:14.683Z,22.72
2023-07-29T07:56:16.444Z,22.64
2023-07-29T08:00:20.303Z,22.61
2023-07-29T08:04:21.891Z,22.52
2023-07-29T08:08:23.629Z,22.61
2023-07-29T08:12:25.268Z,22.56
2023-07-29T08:16:27.035Z,22.45
2023-07-29T08:20:28.933Z,22.49
2023-07-29T08:24:30.546Z,22.52
2023-07-29T08:28:38.833Z,22.63
2023-07-29T08:32:40.504Z,22.78
2023-07-29T08:36:42.103Z,22.82
2023-07-29T08:40:47.320Z,22.85
2023-07-29T08:44:50.639Z,22.88
2023-07-29T08:48:52.586Z,22.84
2023-07-29T08:52:54.725Z,22.72
2023-07-29T08:56:56.926Z,22.70
2023-07-29T09:00:58.824Z,22.89
2023-07-29T09:05:00.454Z,23.06
2023-07-29T09:09:03.439Z,23.23
2023-07-29T09:13:05.450Z,23.49
2023-07-29T09:17:10.961Z,23.63
2023-07-29T09:21:12.721Z,23.72
2023-07-29T09:25:17.406Z,23.67
2023-07-29T09:29:23.828Z,23.71
2023-07-29T09:33:28.406Z,23.87
2023-07-29T09:37:31.877Z,23.92
2023-07-29T09:41:33.528Z,23.94
2023-07-29T09:45:36.719Z,24.08
2023-07-29T09:49:38.350Z,24.26
2023-07-29T09:53:43.324Z,24.49
2023-07-29T09:57:46.182Z,24.70
2023-07-29T10:01:47.833Z,24.89
2023-07-29T10:05:50.523Z,24.92
2023-07-29T10:09:53.658Z,24.83
2023-07-29T10:14:07.422Z,24.83
2023-07-29T10:18:10.518Z,24.92
2023-07-29T10:22:14.239Z,24.94
2023-07-29T10:26:18.763Z,24.97
2023-07-29T10:30:20.509Z,25.05
2023-07-29T10:34:22.980Z,25.31
2023-07-29T10:38:25.718Z,25.48
2023-07-29T10:42:27.374Z,25.54
2023-07-29T10:46:29.086Z,25.66
2023-07-29T10:50:30.664Z,25.72
2023-07-29T10:54:43.774Z,25.64
2023-07-29T10:58:45.396Z,25.60
2023-07-29T11:03:01.536Z,25.74
2023-07-29T11:07:09.184Z,25.89
2023-07-29T11:11:13.611Z,26.00
2023-07-29T11:15:29.215Z,26.16
2023-07-29T11:19:30.902Z,26.03
2023-07-29T11:23:37.543Z,26.08
2023-07-29T11:27:39.671Z,26.11
2023-07-29T11:31:41.718Z,26.23
2023-07-29T11:35:43.325Z,26.36
2023-07-29T11:39:46.398Z,26.42
2023-07-29T11:43:47.934Z,26.49
2023-07-29T11:47:49.588Z,26.54
2023-07-29T11:51:51.284Z,26.64
2023-07-29T11:55:54.164Z,26.76
2023-07-29T11:59:56.036Z,26.84
2023-07-29T12:03:58.633Z,26.97
2023-07-29T12:08:00.387Z,27.11
2023-07-29T12:12:04.199Z,27.27
2023-07-29T12:16:05.921Z,27.31
2023-07-29T12:20:10.773Z,27.45
2023-07-29T12:24:15.514Z,27.34
2023-07-29T12:28:17.237Z,27.30
2023-07-29T12:32:18.859Z,27.59
2023-07-29T12:36:20.508Z,27.83
2023-07-29T12:40:28.404Z,27.91
2023-07-29T12:44:35.039Z,28.01
2023-07-29T12:48:36.739Z,27.99
2023-07-29T12:52:38.788Z,28.23
2023-07-29T12:56:40.347Z,28.24
2023-07-29T13:00:41.984Z,28.06
2023-07-29T13:04:43.669Z,28.20
2023-07-29T13:08:45.766Z,28.27
2023-07-29T13:12:47.465Z,28.38
2023-07-29T13:16:49.038Z,28.09
2023-07-29T13:20:51.058Z,28.08
2023-07-29T13:24:52.719Z,28.03
2023-07-29T13:28:54.584Z,28.57
2023-07-29T13:32:56.240Z,28.72
2023-07-29T13:36:58.181Z,28.76
2023-07-29T13:40:59.990Z,28.50
2023-07-29T13:45:02.044Z,28.35
2023-07-29T13:49:04.272Z,28.65
2023-07-29T13:53:05.843Z,29.02
2023-07-29T13:57:07.866Z,29.25
2023-07-29T14:01:09.572Z,29.27
2023-07-29T14:05:12.831Z,29.37
2023-07-29T14:09:14.563Z,29.84
2023-07-29T14:13:16.144Z,29.29
2023-07-29T14:17:18.023Z,29.21
2023-07-29T14:21:19.585Z,29.26
2023-07-29T14:25:21.210Z,29.57
2023-07-29T14:29:22.764Z,30.13
2023-07-29T14:33:24.418Z,29.70
2023-07-29T14:37:26.045Z,30.26
2023-07-29T14:41:27.774Z,30.37
2023-07-29T14:45:29.441Z,30.59
2023-07-29T14:49:31.078Z,31.01
2023-07-29T14:53:32.775Z,31.25
2023-07-29T14:57:34.498Z,30.85
2023-07-29T15:01:36.133Z,30.64
2023-07-29T15:05:37.812Z,30.01
2023-07-29T15:09:39.383Z,29.92
2023-07-29T15:13:40.967Z,30.01
2023-07-29T15:17:42.707Z,29.85
2023-07-29T15:21:44.422Z,29.88
2023-07-29T15:25:46.492Z,30.18
2023-07-29T15:29:48.126Z,30.56
2023-07-29T15:33:49.942Z,30.70
2023-07-29T15:37:51.585Z,29.95
2023-07-29T15:41:53.449Z,29.64
2023-07-29T15:45:55.095Z,29.66
2023-07-29T15:49:56.703Z,29.32
2023-07-29T15:53:58.250Z,28.98
2023-07-29T15:57:59.904Z,28.64
2023-07-29T16:02:01.909Z,28.45
2023-07-29T16:06:04.504Z,28.36
2023-07-29T16:10:07.107Z,28.43
2023-07-29T16:14:08.766Z,28.60
2023-07-29T16:18:10.451Z,28.52
2023-07-29T16:22:12.047Z,28.17
2023-07-29T16:26:13.836Z,27.90
2023-07-29T16:30:15.465Z,27.15
2023-07-29T16:34:17.107Z,26.66
2023-07-29T16:38:18.900Z,26.32
2023-07-29T16:42:21.826Z,25.76
2023-07-29T16:46:23.542Z,24.53
2023-07-29T16:50:25.263Z,23.93
2023-07-29T16:54:26.853Z,23.96
2023-07-29T16:58:28.434Z,24.36
2023-07-29T17:02:30.118Z,25.14
2023-07-29T17:06:31.826Z,25.59
2023-07-29T17:10:33.416Z,25.71
2023-07-29T17:14:35.120Z,25.59
2023-07-29T17:18:37.844Z,25.41
2023-07-29T17:22:39.686Z,25.31
2023-07-29T17:26:41.237Z,25.45
2023-07-29T17:30:42.850Z,25.54
2023-07-29T17:34:44.459Z,25.44
2023-07-29T17:38:46.072Z,25.11
2023-07-29T17:42:47.654Z,25.02
2023-07-29T17:46:49.307Z,25.04
2023-07-29T17:50:50.980Z,24.98
2023-07-29T17:54:52.641Z,24.90
2023-07-29T17:58:54.273Z,24.87
2023-07-29T18:02:56.933Z,24.83
2023-07-29T18:06:58.909Z,24.77
2023-07-29T18:11:00.646Z,24.67
2023-07-29T18:15:02.340Z,24.60
2023-07-29T18:19:03.921Z,24.55
2023-07-29T18:23:06.074Z,24.49
2023-07-29T18:27:09.199Z,24.45
2023-07-29T18:31:11.743Z,24.41
2023-07-29T18:35:18.722Z,24.36
2023-07-29T18:39:20.321Z,24.29
2023-07-29T18:43:22.222Z,24.23
2023-07-29T18:47:23.870Z,24.16
2023-07-29T18:51:25.777Z,24.09
2023-07-29T18:55:30.268Z,24.00
2023-07-29T18:59:32.176Z,23.96
2023-07-29T19:03:33.885Z,23.92
2023-07-29T19:07:36.490Z,23.87
2023-07-29T19:11:38.212Z,23.79
2023-07-29T19:15:40.690Z,23.75
2023-07-29T19:19:42.280Z,23.71
2023-07-29T19:23:44.223Z,23.64
2023-07-29T19:27:45.915Z,23.59
2023-07-29T19:31:47.548Z,23.57
2023-07-29T19:35:56.109Z,23.56
2023-07-29T19:39:57.820Z,23.53
2023-07-29T19:44:05.745Z,23.49
2023-07-29T19:48:14.468Z,23.47
2023-07-29T19:52:16.267Z,23.42
2023-07-29T19:56:20.601Z,23.35
2023-07-29T20:00:22.319Z,23.37
2023-07-29T20:04:24.378Z,23.35
2023-07-29T20:08:26.087Z,23.34
2023-07-29T20:12:27.731Z,23.37
2023-07-29T20:16:29.539Z,23.32
2023-07-29T20:20:31.487Z,23.29
2023-07-29T20:24:33.117Z,23.29
2023-07-29T20:28:34.718Z,23.26
2023-07-29T20:32:37.769Z,23.25
2023-07-29T20:36:39.469Z,23.29
2023-07-29T20:40:49.732Z,23.31
2023-07-29T20:44:51.415Z,23.26
2023-07-29T20:48:52.953Z,23.26
2023-07-29T20:52:54.559Z,23.22
2023-07-29T20:56:56.245Z,23.21
2023-07-29T21:00:57.982Z,23.19
2023-07-29T21:04:59.599Z,23.16
2023-07-29T21:09:01.300Z,23.14
2023-07-29T21:13:02.914Z,23.12
2023-07-29T21:17:04.838Z,23.14
2023-07-29T21:21:06.432Z,23.14
2023-07-29T21:25:08.428Z,23.09
2023-07-29T21:29:10.019Z,23.03
2023-07-29T21:33:11.751Z,23.00
2023-07-29T21:37:21.800Z,22.99
2023-07-29T21:41:31.773Z,22.94
2023-07-29T21:45:33.386Z,22.86
2023-07-29T21:49:34.967Z,22.81
2023-07-29T21:53:36.546Z,22.72
2023-07-29T21:57:38.250Z,22.67
2023-07-29T22:01:39.791Z,22.60
2023-07-29T22:05:41.385Z,22.51
2023-07-29T22:09:42.938Z,22.45
2023-07-29T22:13:44.601Z,22.44
2023-07-29T22:17:46.270Z,22.36
2023-07-29T22:21:51.404Z,22.29
2023-07-29T22:25:59.912Z,22.23
2023-07-29T22:30:01.601Z,22.17
2023-07-29T22:34:03.864Z,22.15
2023-07-29T22:38:05.434Z,22.11
2023-07-29T22:42:07.325Z,22.12
2023-07-29T22:46:08.996Z,22.11
2023-07-29T22:50:10.909Z,22.12
2023-07-29T22:54:12.501Z,22.04
2023-07-29T22:58:14.049Z,22.02
2023-07-29T23:02:15.855Z,21.93
2023-07-29T23:06:17.534Z,21.93
2023-07-29T23:10:19.280Z,21.89
2023-07-29T23:14:20.930Z,21.89
2023-07-29T23:18:22.535Z,21.86
2023-07-29T23:22:24.155Z,21.85
2023-07-29T23:26:25.720Z,21.82
2023-07-29T23:30:27.351Z,21.74
2023-07-29T23:34:29.081Z,21.70
2023-07-29T23:38:30.728Z,21.63
2023-07-29T23:42:32.720Z,21.64
2023-07-29T23:46:34.456Z,21.55
2023-07-29T23:50:36.063Z,21.52
2023-07-29T23:54:37.644Z,21.51
2023-07-29T23:58:39.234Z,21.53
